Time;durP1;ratioP1;P1;durP2;ratioP2;P2;SDS_P1;SDS_P2;PMS_P1;PMS_P2;Temp;Humidity;BMP_temperature;BMP_pressure;BME280_temperature;BME280_humidity;BME280_pressure;Samples;Min_cycle;Max_cycle;Signal;HPM_P1;HPM_P2
2021/07/25 00:01:28;;;;;;;9.23;5.63;;;;;;;;;;5074392;28;20215;-73
2021/07/25 00:04:32;;;;;;;9.43;6.00;;;;;;;;;;5073502;28;20195;-73
2021/07/25 00:07:36;;;;;;;11.53;6.20;;;;;;;;;;5074027;28;20203;-73
2021/07/25 00:10:46;;;;;;;7.00;5.07;;;;;;;;;;5074805;28;20188;-73
2021/07/25 00:13:52;;;;;;;9.13;5.70;;;;;;;;;;5074966;28;20199;-73
2021/07/25 00:16:56;;;;;;;8.70;6.20;;;;;;;;;;5073824;28;20195;-73
2021/07/25 00:20:01;;;;;;;8.87;5.83;;;;;;;;;;5073614;28;20223;-73
2021/07/25 00:23:06;;;;;;;9.73;5.90;;;;;;;;;;5074561;28;20215;-73
2021/07/25 00:26:15;;;;;;;10.77;6.10;;;;;;;;;;5073561;28;20207;-73
2021/07/25 00:29:19;;;;;;;7.33;5.30;;;;;;;;;;5074677;28;20631;-73
2021/07/25 00:32:24;;;;;;;8.03;5.50;;;;;;;;;;5073451;28;20219;-73
2021/07/25 00:35:28;;;;;;;6.63;5.53;;;;;;;;;;5074336;28;20203;-73
2021/07/25 00:38:32;;;;;;;8.13;5.07;;;;;;;;;;5074494;28;20203;-73
2021/07/25 00:41:37;;;;;;;11.03;5.33;;;;;;;;;;5074223;28;20219;-73
2021/07/25 00:44:40;;;;;;;10.93;5.00;;;;;;;;;;5073888;28;20196;-73
2021/07/25 00:47:45;;;;;;;9.10;5.23;;;;;;;;;;5074358;28;20179;-73
2021/07/25 00:50:50;;;;;;;7.13;5.63;;;;;;;;;;5073997;28;20187;-73
2021/07/25 00:53:55;;;;;;;8.37;5.60;;;;;;;;;;5073941;28;20187;-73
2021/07/25 00:56:59;;;;;;;6.37;5.40;;;;;;;;;;5073032;28;20650;-72
2021/07/25 01:00:07;;;;;;;6.87;4.57;;;;;;;;;;5072713;28;20207;-73
2021/07/25 01:03:14;;;;;;;8.30;4.97;;;;;;;;;;5073945;28;20222;-73
2021/07/25 01:06:37;;;;;;;6.57;5.47;;;;;;;;;;5073072;28;20195;-73
2021/07/25 01:10:04;;;;;;;8.47;4.97;;;;;;;;;;5073913;28;20626;-73
2021/07/25 01:13:14;;;;;;;10.07;5.53;;;;;;;;;;5073019;28;20223;-73
2021/07/25 01:16:19;;;;;;;8.57;4.60;;;;;;;;;;5073639;28;20191;-73
2021/07/25 01:19:23;;;;;;;10.53;5.17;;;;;;;;;;5073507;28;20184;-73
2021/07/25 01:22:31;;;;;;;6.93;5.10;;;;;;;;;;5073472;28;20227;-73
2021/07/25 01:25:35;;;;;;;8.17;5.20;;;;;;;;;;5073476;28;20196;-73
2021/07/25 01:28:43;;;;;;;6.60;5.17;;;;;;;;;;5073766;28;20191;-73
2021/07/25 01:31:48;;;;;;;10.87;5.27;;;;;;;;;;5073322;28;20215;-73
2021/07/25 01:34:56;;;;;;;7.60;4.93;;;;;;;;;;5073562;28;20507;-73
2021/07/25 01:38:00;;;;;;;10.23;5.10;;;;;;;;;;5053547;28;20180;-73
2021/07/25 01:41:13;;;;;;;8.53;5.17;;;;;;;;;;5060483;28;20669;-73
2021/07/25 01:44:17;;;;;;;9.77;5.40;;;;;;;;;;5072477;28;20645;-73
2021/07/25 01:47:21;;;;;;;7.03;5.30;;;;;;;;;;5072898;28;20176;-73
2021/07/25 01:50:25;;;;;;;11.63;5.60;;;;;;;;;;5073153;28;20179;-73
2021/07/25 01:53:34;;;;;;;6.73;5.50;;;;;;;;;;5072269;28;20668;-73
2021/07/25 01:56:38;;;;;;;13.60;6.03;;;;;;;;;;5072768;28;20188;-73
2021/07/25 01:59:42;;;;;;;14.23;5.47;;;;;;;;;;5073047;28;20646;-73
2021/07/25 02:02:46;;;;;;;9.53;5.67;;;;;;;;;;5072413;28;20215;-73
2021/07/25 02:05:51;;;;;;;11.90;5.47;;;;;;;;;;5073183;28;20187;-73
2021/07/25 02:08:55;;;;;;;8.03;5.47;;;;;;;;;;5062314;28;20638;-73
2021/07/25 02:11:59;;;;;;;10.43;5.30;;;;;;;;;;5076292;28;20211;-73
2021/07/25 02:15:05;;;;;;;10.23;5.43;;;;;;;;;;5077001;28;20167;-73
2021/07/25 02:18:09;;;;;;;8.03;5.23;;;;;;;;;;5077796;28;20183;-73
2021/07/25 02:21:13;;;;;;;7.50;5.13;;;;;;;;;;5076410;28;20665;-73
2021/07/25 02:24:19;;;;;;;8.17;5.80;;;;;;;;;;5076796;28;20191;-73
2021/07/25 02:27:23;;;;;;;19.40;5.20;;;;;;;;;;5076167;28;20187;-73
2021/07/25 02:30:27;;;;;;;14.63;6.00;;;;;;;;;;5076716;28;20180;-73
2021/07/25 02:33:31;;;;;;;11.17;6.10;;;;;;;;;;5076268;28;20206;-73
2021/07/25 02:36:36;;;;;;;10.33;5.30;;;;;;;;;;5075794;28;20195;-73
2021/07/25 02:39:40;;;;;;;13.03;4.80;;;;;;;;;;5077348;28;20176;-73
2021/07/25 02:42:44;;;;;;;11.43;5.67;;;;;;;;;;5075901;28;20215;-73
2021/07/25 02:45:49;;;;;;;15.70;6.03;;;;;;;;;;5076090;28;20642;-73
2021/07/25 02:48:53;;;;;;;14.70;6.57;;;;;;;;;;5076350;28;20524;-73
2021/07/25 02:52:01;;;;;;;11.73;5.10;;;;;;;;;;5076036;28;20226;-73
2021/07/25 02:55:06;;;;;;;8.60;5.50;;;;;;;;;;5076167;28;20192;-74
2021/07/25 02:58:10;;;;;;;10.00;5.83;;;;;;;;;;5056312;28;20211;-74
2021/07/25 03:01:15;;;;;;;12.90;5.60;;;;;;;;;;5075682;28;20215;-73
2021/07/25 03:04:19;;;;;;;11.10;5.63;;;;;;;;;;5075485;28;20199;-74
2021/07/25 03:07:23;;;;;;;9.80;5.33;;;;;;;;;;5074985;28;20207;-73
2021/07/25 03:10:27;;;;;;;7.37;5.40;;;;;;;;;;5075839;28;20658;-73
2021/07/25 03:13:33;;;;;;;10.40;6.37;;;;;;;;;;5075785;28;20218;-74
2021/07/25 03:16:37;;;;;;;9.30;5.63;;;;;;;;;;5075842;28;20551;-73
2021/07/25 03:19:41;;;;;;;7.83;5.73;;;;;;;;;;5076220;28;20191;-73
2021/07/25 03:22:45;;;;;;;11.90;5.77;;;;;;;;;;5074142;28;20215;-74
2021/07/25 03:25:50;;;;;;;10.17;5.37;;;;;;;;;;5075686;28;20199;-74
2021/07/25 03:28:54;;;;;;;10.03;5.57;;;;;;;;;;5075838;28;20191;-74
2021/07/25 03:31:58;;;;;;;9.30;5.70;;;;;;;;;;5074210;28;20210;-73
2021/07/25 03:35:03;;;;;;;13.23;5.93;;;;;;;;;;5058652;28;20179;-74
2021/07/25 03:38:07;;;;;;;13.13;6.10;;;;;;;;;;5055739;28;20176;-74
2021/07/25 03:41:11;;;;;;;10.70;5.13;;;;;;;;;;5062429;28;20207;-73
2021/07/25 03:44:16;;;;;;;7.33;5.67;;;;;;;;;;5075653;28;20179;-74
2021/07/25 03:47:20;;;;;;;11.40;5.83;;;;;;;;;;5072038;28;20523;-73
2021/07/25 03:50:25;;;;;;;11.03;6.17;;;;;;;;;;5075281;28;20195;-74
2021/07/25 03:53:28;;;;;;;9.37;4.77;;;;;;;;;;5087322;22;20210;-74
2021/07/25 03:56:36;;;;;;;6.50;4.90;;;;;;;;;;5073921;28;20554;-74
2021/07/25 03:59:40;;;;;;;11.37;5.40;;;;;;;;;;5055371;28;20638;-74
2021/07/25 04:02:44;;;;;;;8.53;4.90;;;;;;;;;;5054889;28;20682;-74
2021/07/25 04:05:48;;;;;;;9.57;4.90;;;;;;;;;;5062075;28;20187;-74
2021/07/25 04:08:52;;;;;;;6.90;5.43;;;;;;;;;;5067376;28;20188;-73
2021/07/25 04:11:56;;;;;;;11.37;4.60;;;;;;;;;;5061012;28;20219;-74
2021/07/25 04:15:02;;;;;;;11.20;5.30;;;;;;;;;;5075016;28;20183;-75
2021/07/25 04:18:06;;;;;;;8.33;5.13;;;;;;;;;;5074089;28;20634;-74
2021/07/25 04:21:11;;;;;;;8.43;5.20;;;;;;;;;;5054649;28;20208;-74
2021/07/25 04:24:15;;;;;;;5.10;4.47;;;;;;;;;;5055236;28;20192;-74
2021/07/25 04:27:19;;;;;;;7.37;4.83;;;;;;;;;;5061554;28;20195;-74
2021/07/25 04:30:25;;;;;;;6.97;4.90;;;;;;;;;;5053750;28;20197;-74
2021/07/25 04:33:30;;;;;;;8.37;5.27;;;;;;;;;;5055534;28;20571;-74
2021/07/25 04:36:34;;;;;;;7.60;4.90;;;;;;;;;;5043107;28;20200;-74
2021/07/25 04:39:39;;;;;;;8.57;4.60;;;;;;;;;;5042567;28;20188;-76
2021/07/25 04:42:48;;;;;;;7.20;4.87;;;;;;;;;;5054400;28;20220;-74
2021/07/25 04:46:02;;;;;;;11.07;5.20;;;;;;;;;;5062165;28;20191;-74
2021/07/25 04:49:10;;;;;;;11.83;5.03;;;;;;;;;;5072875;28;20191;-75
2021/07/25 04:52:16;;;;;;;9.80;5.23;;;;;;;;;;5054263;28;20212;-75
2021/07/25 04:55:25;;;;;;;6.70;4.57;;;;;;;;;;5067752;28;20202;-74
2021/07/25 04:58:45;;;;;;;11.40;5.83;;;;;;;;;;5071351;28;20191;-74
2021/07/25 05:01:50;;;;;;;10.23;4.97;;;;;;;;;;5064277;28;20219;-74
2021/07/25 05:04:54;;;;;;;8.17;4.87;;;;;;;;;;5054113;28;20187;-74
2021/07/25 05:08:01;;;;;;;11.03;4.93;;;;;;;;;;5030267;28;20200;-74
2021/07/25 05:11:14;;;;;;;10.70;4.57;;;;;;;;;;5059999;28;20535;-74
2021/07/25 05:14:25;;;;;;;10.50;4.97;;;;;;;;;;5072499;28;20191;-75
2021/07/25 05:17:39;;;;;;;11.63;5.67;;;;;;;;;;5072952;28;20184;-76
2021/07/25 05:20:54;;;;;;;12.40;5.37;;;;;;;;;;5071664;28;20184;-75
2021/07/25 05:24:02;;;;;;;7.57;4.60;;;;;;;;;;5068552;28;20192;-77
2021/07/25 05:27:12;;;;;;;9.33;5.17;;;;;;;;;;5071668;28;20206;-76
2021/07/25 05:30:19;;;;;;;9.13;5.47;;;;;;;;;;5069014;28;20189;-75
2021/07/25 05:33:23;;;;;;;16.03;6.10;;;;;;;;;;5055248;28;20212;-74
2021/07/25 05:36:28;;;;;;;9.30;5.77;;;;;;;;;;5053164;28;20176;-74
2021/07/25 05:39:32;;;;;;;10.33;6.07;;;;;;;;;;5053960;28;20195;-75
2021/07/25 05:42:38;;;;;;;10.30;5.80;;;;;;;;;;5066953;28;20219;-75
2021/07/25 05:45:42;;;;;;;12.77;5.63;;;;;;;;;;5061111;28;20649;-74
2021/07/25 05:48:46;;;;;;;8.57;5.13;;;;;;;;;;5073026;28;20179;-74
2021/07/25 05:51:51;;;;;;;8.50;4.83;;;;;;;;;;5056608;28;20220;-74
2021/07/25 05:54:55;;;;;;;9.90;5.37;;;;;;;;;;5053100;28;20203;-75
2021/07/25 05:58:01;;;;;;;14.00;6.20;;;;;;;;;;5053122;28;20619;-74
2021/07/25 06:01:05;;;;;;;9.13;5.50;;;;;;;;;;5059851;28;20527;-74
2021/07/25 06:04:09;;;;;;;10.53;5.20;;;;;;;;;;5057083;28;20184;-73
2021/07/25 06:07:13;;;;;;;9.43;5.70;;;;;;;;;;5052327;28;20630;-75
2021/07/25 06:10:19;;;;;;;10.30;5.50;;;;;;;;;;5069693;28;20188;-73
2021/07/25 06:13:24;;;;;;;9.83;6.07;;;;;;;;;;5072254;28;20214;-75
2021/07/25 06:16:29;;;;;;;10.57;6.03;;;;;;;;;;5052666;28;20207;-74
2021/07/25 06:19:32;;;;;;;10.63;5.60;;;;;;;;;;5053853;28;20199;-74
2021/07/25 06:22:45;;;;;;;9.03;5.10;;;;;;;;;;5053635;28;20227;-74
2021/07/25 06:25:49;;;;;;;12.47;5.73;;;;;;;;;;5070469;28;20187;-74
2021/07/25 06:28:53;;;;;;;9.10;5.27;;;;;;;;;;5072898;28;20183;-73
2021/07/25 06:31:56;;;;;;;11.00;5.80;;;;;;;;;;5072143;28;20215;-73
2021/07/25 06:35:01;;;;;;;9.30;5.20;;;;;;;;;;5061769;28;20230;-74
2021/07/25 06:38:12;;;;;;;10.57;5.40;;;;;;;;;;5060658;28;20195;-73
2021/07/25 06:41:16;;;;;;;8.67;5.47;;;;;;;;;;5072544;28;20188;-74
2021/07/25 06:44:20;;;;;;;7.30;5.20;;;;;;;;;;5071383;28;20187;-73
2021/07/25 06:47:24;;;;;;;9.60;5.43;;;;;;;;;;5072608;28;20179;-75
2021/07/25 06:50:30;;;;;;;6.33;4.77;;;;;;;;;;5072806;28;20195;-74
2021/07/25 06:53:34;;;;;;;9.13;4.77;;;;;;;;;;5072011;28;20199;-74
2021/07/25 06:56:39;;;;;;;7.23;5.23;;;;;;;;;;5053010;28;20180;-74
2021/07/25 06:59:43;;;;;;;8.53;4.80;;;;;;;;;;5056173;28;20176;-74
2021/07/25 07:02:51;;;;;;;10.53;5.53;;;;;;;;;;5056185;28;20706;-74
2021/07/25 07:05:55;;;;;;;8.03;5.40;;;;;;;;;;5056008;28;20207;-73
2021/07/25 07:08:59;;;;;;;7.37;5.23;;;;;;;;;;5056589;28;20630;-74
2021/07/25 07:12:03;;;;;;;8.63;4.80;;;;;;;;;;5059947;28;20215;-74
2021/07/25 07:15:08;;;;;;;6.53;5.23;;;;;;;;;;5076158;28;20179;-73
2021/07/25 07:18:13;;;;;;;9.30;4.90;;;;;;;;;;5076435;28;20180;-74
2021/07/25 07:21:16;;;;;;;6.30;5.33;;;;;;;;;;5075130;28;20175;-74
2021/07/25 07:24:21;;;;;;;6.73;5.63;;;;;;;;;;5075235;28;20179;-73
2021/07/25 07:27:26;;;;;;;7.73;4.53;;;;;;;;;;5075438;28;20180;-74
2021/07/25 07:30:30;;;;;;;8.87;5.00;;;;;;;;;;5075699;28;20615;-74
2021/07/25 07:33:33;;;;;;;9.47;5.43;;;;;;;;;;5076274;28;20210;-74
2021/07/25 07:36:38;;;;;;;10.87;5.60;;;;;;;;;;5075891;28;20196;-73
2021/07/25 07:39:43;;;;;;;10.27;5.67;;;;;;;;;;5075013;28;20180;-74
2021/07/25 07:42:48;;;;;;;7.03;5.20;;;;;;;;;;5074633;28;20227;-74
2021/07/25 07:45:52;;;;;;;9.40;5.30;;;;;;;;;;5075932;28;20179;-74
2021/07/25 07:48:56;;;;;;;7.97;5.60;;;;;;;;;;5074761;28;20191;-74
2021/07/25 07:52:00;;;;;;;7.17;5.37;;;;;;;;;;5063199;28;20215;-74
2021/07/25 07:55:05;;;;;;;8.40;5.10;;;;;;;;;;5056757;28;20215;-74
2021/07/25 07:58:09;;;;;;;10.97;5.53;;;;;;;;;;5064880;28;20187;-73
2021/07/25 08:01:13;;;;;;;6.50;5.27;;;;;;;;;;5073718;28;20192;-74
2021/07/25 08:04:17;;;;;;;7.77;5.47;;;;;;;;;;5075273;28;20167;-73
2021/07/25 08:07:21;;;;;;;9.67;5.27;;;;;;;;;;5071688;28;20195;-74
2021/07/25 08:10:25;;;;;;;10.17;6.07;;;;;;;;;;5075227;28;20183;-74
2021/07/25 08:13:29;;;;;;;7.67;5.83;;;;;;;;;;5066719;28;20206;-73
2021/07/25 08:16:34;;;;;;;6.57;5.60;;;;;;;;;;5075011;28;20511;-74
2021/07/25 08:19:38;;;;;;;10.43;5.60;;;;;;;;;;5056805;28;20195;-72
2021/07/25 08:22:42;;;;;;;9.17;5.83;;;;;;;;;;5059581;28;20575;-74
2021/07/25 08:25:46;;;;;;;12.13;5.50;;;;;;;;;;5074973;28;20175;-73
2021/07/25 08:28:50;;;;;;;6.97;5.80;;;;;;;;;;5068769;28;20184;-72
2021/07/25 08:31:59;;;;;;;6.37;5.10;;;;;;;;;;5054976;28;20208;-73
2021/07/25 08:34:46;;;;;;;8.50;5.60;;;;;;;;;;5071302;28;20841;-73
2021/07/25 08:37:50;;;;;;;8.43;5.47;;;;;;;;;;5069499;28;20202;-72
2021/07/25 08:41:17;;;;;;;9.47;5.57;;;;;;;;;;5070923;28;20176;-73
2021/07/25 08:44:41;;;;;;;7.03;4.90;;;;;;;;;;5050638;28;20176;-73
2021/07/25 08:47:53;;;;;;;7.77;5.67;;;;;;;;;;5050767;28;20567;-72
2021/07/25 08:51:05;;;;;;;6.00;5.40;;;;;;;;;;5050759;28;20188;-72
2021/07/25 08:54:14;;;;;;;6.97;5.80;;;;;;;;;;5050431;28;20548;-72
2021/07/25 08:57:22;;;;;;;9.50;6.27;;;;;;;;;;5050648;28;20188;-72
2021/07/25 09:00:26;;;;;;;8.83;6.13;;;;;;;;;;5050584;28;20180;-72
2021/07/25 09:03:31;;;;;;;9.57;5.83;;;;;;;;;;5050470;28;20220;-72
2021/07/25 09:06:49;;;;;;;11.83;6.40;;;;;;;;;;5050480;28;20224;-73
2021/07/25 09:10:07;;;;;;;8.93;6.20;;;;;;;;;;5037945;28;20185;-72
2021/07/25 09:13:11;;;;;;;9.70;6.40;;;;;;;;;;5049092;28;20224;-72
2021/07/25 09:16:16;;;;;;;9.27;6.33;;;;;;;;;;5050280;28;20184;-72
2021/07/25 09:19:20;;;;;;;8.57;6.03;;;;;;;;;;5049425;28;20180;-72
2021/07/25 09:22:25;;;;;;;10.67;6.57;;;;;;;;;;5049946;28;20220;-72
2021/07/25 09:26:03;;;;;;;10.63;7.37;;;;;;;;;;5050094;28;20623;-72
2021/07/25 09:29:18;;;;;;;12.93;7.20;;;;;;;;;;5049761;28;20527;-72
2021/07/25 09:32:22;;;;;;;11.60;8.03;;;;;;;;;;5049036;28;20212;-72
2021/07/25 09:35:31;;;;;;;13.07;8.00;;;;;;;;;;5049651;28;20188;-72
2021/07/25 09:38:36;;;;;;;12.50;9.00;;;;;;;;;;5048820;28;20640;-73
2021/07/25 09:41:53;;;;;;;10.87;7.70;;;;;;;;;;5049773;28;20216;-72
2021/07/25 09:44:59;;;;;;;12.67;8.53;;;;;;;;;;5042039;28;20181;-72
2021/07/25 09:48:10;;;;;;;11.00;8.17;;;;;;;;;;5035647;28;20173;-72
2021/07/25 09:51:16;;;;;;;10.90;7.10;;;;;;;;;;5035965;28;20181;-72
2021/07/25 09:54:25;;;;;;;13.17;7.97;;;;;;;;;;5051455;22;20208;31
2021/07/25 09:57:30;;;;;;;11.67;8.63;;;;;;;;;;4994472;28;20218;-74
2021/07/25 10:00:43;;;;;;;13.87;8.50;;;;;;;;;;4996903;28;20506;-74
2021/07/25 10:03:47;;;;;;;9.37;7.73;;;;;;;;;;4965537;28;20179;-74
2021/07/25 10:06:54;;;;;;;11.30;7.70;;;;;;;;;;4977306;28;20586;-74
2021/07/25 10:09:59;;;;;;;11.80;7.47;;;;;;;;;;4977096;28;20206;-74
2021/07/25 10:13:03;;;;;;;10.90;7.90;;;;;;;;;;4976838;28;20226;-74
2021/07/25 10:16:07;;;;;;;7.77;6.63;;;;;;;;;;4977535;28;20186;-74
2021/07/25 10:19:12;;;;;;;8.37;6.27;;;;;;;;;;4977092;28;20661;-74
2021/07/25 10:22:17;;;;;;;9.30;6.80;;;;;;;;;;4976841;28;20682;-74
2021/07/25 10:25:23;;;;;;;9.47;7.40;;;;;;;;;;4977089;28;20190;-74
2021/07/25 10:28:31;;;;;;;9.50;6.60;;;;;;;;;;4976106;28;20633;-75
2021/07/25 10:31:38;;;;;;;7.20;6.33;;;;;;;;;;4975751;28;20222;-75
2021/07/25 10:34:43;;;;;;;8.47;5.93;;;;;;;;;;4975763;28;20202;-73
2021/07/25 10:37:49;;;;;;;11.27;6.83;;;;;;;;;;4975705;28;20566;-74
2021/07/25 10:40:55;;;;;;;9.10;5.83;;;;;;;;;;4976370;28;20206;-74
2021/07/25 10:44:01;;;;;;;7.97;5.60;;;;;;;;;;4976452;28;20183;-74
2021/07/25 10:47:17;;;;;;;6.73;5.27;;;;;;;;;;4976546;28;20622;-75
2021/07/25 10:50:21;;;;;;;7.27;5.07;;;;;;;;;;4976230;28;20198;-74
2021/07/25 10:53:25;;;;;;;6.43;5.30;;;;;;;;;;4975993;28;20214;-74
2021/07/25 10:57:10;;;;;;;6.97;5.43;;;;;;;;;;4975127;28;20599;-73
2021/07/25 11:00:45;;;;;;;6.63;5.20;;;;;;;;;;4976319;28;20179;-75
2021/07/25 11:03:49;;;;;;;8.73;4.87;;;;;;;;;;4975747;28;20180;-75
2021/07/25 11:07:22;;;;;;;8.20;4.60;;;;;;;;;;4975342;28;20635;-74
2021/07/25 11:10:32;;;;;;;6.70;5.17;;;;;;;;;;4976049;28;20626;-73
2021/07/25 11:13:41;;;;;;;6.17;4.37;;;;;;;;;;4975012;28;20215;-74
2021/07/25 11:16:45;;;;;;;5.57;4.70;;;;;;;;;;4976009;28;20195;-74
2021/07/25 11:19:48;;;;;;;6.73;4.73;;;;;;;;;;4975633;28;20195;-75
2021/07/25 11:22:53;;;;;;;7.33;4.93;;;;;;;;;;4974661;28;20226;-75
2021/07/25 11:25:57;;;;;;;6.60;5.03;;;;;;;;;;4975572;28;20179;-75
2021/07/25 11:29:06;;;;;;;5.33;4.80;;;;;;;;;;4974737;28;20183;-75
2021/07/25 11:32:45;;;;;;;8.00;4.80;;;;;;;;;;4975357;28;20214;-74
2021/07/25 11:35:50;;;;;;;7.93;4.60;;;;;;;;;;4955157;28;20195;-76
2021/07/25 11:38:58;;;;;;;9.07;4.00;;;;;;;;;;4975400;28;20187;-75
2021/07/25 11:42:07;;;;;;;6.57;3.87;;;;;;;;;;4975482;28;20219;-74
2021/07/25 11:45:11;;;;;;;3.97;3.43;;;;;;;;;;4974678;28;20186;-75
2021/07/25 11:48:19;;;;;;;4.13;3.40;;;;;;;;;;4974412;28;20187;-74
2021/07/25 11:51:23;;;;;;;6.00;3.90;;;;;;;;;;4975382;28;20182;-75
2021/07/25 11:54:29;;;;;;;4.30;3.80;;;;;;;;;;4975354;28;20211;-76
2021/07/25 11:57:33;;;;;;;5.00;3.73;;;;;;;;;;4975333;28;20194;-74
2021/07/25 12:00:37;;;;;;;6.07;4.50;;;;;;;;;;4974979;28;20179;-74
2021/07/25 12:03:41;;;;;;;6.20;3.90;;;;;;;;;;4975499;28;20511;-75
2021/07/25 12:06:45;;;;;;;6.30;4.27;;;;;;;;;;4975392;28;20186;-75
2021/07/25 12:09:52;;;;;;;4.87;4.17;;;;;;;;;;4974820;28;20653;-74
2021/07/25 12:13:07;;;;;;;5.87;3.87;;;;;;;;;;4974895;28;20693;-74
2021/07/25 12:16:11;;;;;;;5.23;4.13;;;;;;;;;;4974293;28;20171;-74
2021/07/25 12:19:18;;;;;;;5.93;4.30;;;;;;;;;;4962737;28;20183;-74
2021/07/25 12:22:22;;;;;;;5.60;3.80;;;;;;;;;;4974598;28;20218;-73
2021/07/25 12:25:46;;;;;;;4.47;3.50;;;;;;;;;;4974625;28;20198;-73
2021/07/25 12:28:51;;;;;;;4.33;3.13;;;;;;;;;;4979472;28;20183;-75
2021/07/25 12:31:55;;;;;;;4.80;3.10;;;;;;;;;;4974504;28;20227;-75
2021/07/25 12:35:08;;;;;;;5.97;3.33;;;;;;;;;;4974406;28;20204;-75
2021/07/25 12:38:15;;;;;;;6.07;3.00;;;;;;;;;;4973881;28;20197;-74
2021/07/25 12:41:41;;;;;;;6.87;3.33;;;;;;;;;;4974391;28;20196;-74
2021/07/25 12:44:46;;;;;;;5.63;3.07;;;;;;;;;;4974456;28;20187;-74
2021/07/25 12:48:25;;;;;;;6.23;3.50;;;;;;;;;;4974755;28;20224;-74
2021/07/25 12:51:41;;;;;;;5.03;3.67;;;;;;;;;;4974379;28;20180;-74
2021/07/25 12:54:45;;;;;;;3.90;3.40;;;;;;;;;;4973295;28;20566;-74
2021/07/25 12:57:49;;;;;;;4.20;3.50;;;;;;;;;;4974873;28;20185;-73
2021/07/25 13:04:08;;;;;;;4.37;2.90;;;;;;;;;;4974319;28;20628;-75
2021/07/25 13:07:14;;;;;;;4.07;3.47;;;;;;;;;;4974557;28;20185;-74
2021/07/25 13:10:18;;;;;;;3.77;3.43;;;;;;;;;;4974208;28;20661;-74
2021/07/25 13:13:23;;;;;;;3.87;3.10;;;;;;;;;;4974154;28;20691;-74
2021/07/25 13:16:27;;;;;;;3.47;3.13;;;;;;;;;;4973660;28;20194;-74
2021/07/25 13:19:31;;;;;;;4.40;3.40;;;;;;;;;;4974580;28;20189;-75
2021/07/25 13:22:35;;;;;;;3.93;3.53;;;;;;;;;;4977744;28;20219;-74
2021/07/25 13:25:39;;;;;;;5.00;3.53;;;;;;;;;;4977780;28;20179;-74
2021/07/25 13:28:43;;;;;;;3.07;2.77;;;;;;;;;;4977675;28;20229;-74
2021/07/25 13:31:48;;;;;;;6.93;3.63;;;;;;;;;;4977563;28;20225;-74
2021/07/25 13:34:52;;;;;;;5.73;3.23;;;;;;;;;;4977998;28;20207;-75
2021/07/25 13:37:56;;;;;;;4.50;3.20;;;;;;;;;;4977910;28;20517;-74
2021/07/25 13:41:01;;;;;;;4.07;3.10;;;;;;;;;;4976717;28;20680;-75
2021/07/25 13:44:05;;;;;;;6.43;3.10;;;;;;;;;;4976676;28;20187;-74
2021/07/25 13:47:10;;;;;;;4.37;3.40;;;;;;;;;;4977483;28;20186;-74
2021/07/25 13:50:14;;;;;;;4.23;3.63;;;;;;;;;;4977644;28;20519;-74
2021/07/25 13:53:18;;;;;;;3.80;3.37;;;;;;;;;;4977516;28;20552;-75
2021/07/25 13:56:22;;;;;;;6.33;3.50;;;;;;;;;;4965287;28;20246;-73
2021/07/25 13:59:26;;;;;;;4.67;3.80;;;;;;;;;;4976435;28;20187;-75
2021/07/25 14:02:30;;;;;;;4.40;3.63;;;;;;;;;;4977308;28;20220;-74
2021/07/25 14:05:35;;;;;;;5.70;3.70;;;;;;;;;;4977310;28;20181;-74
2021/07/25 14:08:39;;;;;;;5.30;3.60;;;;;;;;;;4976468;28;20202;-74
2021/07/25 14:11:44;;;;;;;3.97;3.63;;;;;;;;;;4976300;28;20226;-74
2021/07/25 14:14:48;;;;;;;5.73;3.80;;;;;;;;;;4976787;28;20681;-74
2021/07/25 14:17:53;;;;;;;4.25;3.47;;;;;;;;;;4976863;28;20186;-75
2021/07/25 14:20:57;;;;;;;4.90;3.87;;;;;;;;;;4977325;28;20185;-74
2021/07/25 14:24:01;;;;;;;5.43;3.90;;;;;;;;;;4975997;28;20178;-75
2021/07/25 14:27:05;;;;;;;4.80;4.23;;;;;;;;;;4976958;28;20618;-74
2021/07/25 14:30:10;;;;;;;5.87;4.20;;;;;;;;;;4976880;28;20183;-74
2021/07/25 14:33:14;;;;;;;4.50;3.40;;;;;;;;;;4976587;28;20215;-74
2021/07/25 14:36:18;;;;;;;7.53;4.03;;;;;;;;;;4976743;28;20202;-74
2021/07/25 14:39:22;;;;;;;4.93;3.88;;;;;;;;;;4976749;28;20185;-74
2021/07/25 14:42:26;;;;;;;5.88;4.10;;;;;;;;;;4976861;28;20218;-74
2021/07/25 14:45:30;;;;;;;4.55;3.95;;;;;;;;;;4975845;28;20184;-75
2021/07/25 14:48:34;;;;;;;4.25;3.83;;;;;;;;;;4976794;28;20208;-74
2021/07/25 14:51:38;;;;;;;5.05;4.20;;;;;;;;;;4976150;28;20221;-74
2021/07/25 14:54:42;;;;;;;5.88;3.85;;;;;;;;;;4975939;28;20210;-74
2021/07/25 14:57:46;;;;;;;8.43;4.13;;;;;;;;;;4976090;28;20195;-74
2021/07/25 15:00:50;;;;;;;4.88;4.38;;;;;;;;;;4975549;28;20192;-73
2021/07/25 15:03:54;;;;;;;7.53;4.25;;;;;;;;;;4976308;28;20512;-75
2021/07/25 15:06:59;;;;;;;7.28;4.15;;;;;;;;;;4976200;28;20185;-75
2021/07/25 15:10:03;;;;;;;5.10;4.15;;;;;;;;;;4976180;28;20189;-74
2021/07/25 15:13:08;;;;;;;7.85;3.88;;;;;;;;;;4975724;28;20221;-74
2021/07/25 15:16:12;;;;;;;4.65;3.88;;;;;;;;;;4975712;28;20676;-75
2021/07/25 15:19:16;;;;;;;5.97;4.40;;;;;;;;;;4975972;28;20188;-75
2021/07/25 15:22:19;;;;;;;6.07;4.40;;;;;;;;;;4974898;28;20221;-74
2021/07/25 15:25:24;;;;;;;6.32;4.40;;;;;;;;;;4975845;28;20182;-75
2021/07/25 15:28:29;;;;;;;8.23;4.82;;;;;;;;;;4975724;28;20181;-74
2021/07/25 15:31:33;;;;;;;5.93;4.28;;;;;;;;;;4974904;28;20215;-75
2021/07/25 15:34:37;;;;;;;5.68;4.18;;;;;;;;;;4975606;28;20538;-75
2021/07/25 15:37:41;;;;;;;8.40;4.05;;;;;;;;;;4974565;28;20208;-74
2021/07/25 15:40:45;;;;;;;11.13;4.47;;;;;;;;;;4975879;28;20180;-75
2021/07/25 15:43:50;;;;;;;8.33;4.30;;;;;;;;;;4974824;28;20186;-74
2021/07/25 15:46:55;;;;;;;4.80;4.13;;;;;;;;;;4975685;28;20188;-74
2021/07/25 15:49:59;;;;;;;12.03;4.50;;;;;;;;;;4975534;28;20527;-74
2021/07/25 15:53:03;;;;;;;7.33;4.80;;;;;;;;;;4975361;28;20694;-74
2021/07/25 16:26:51;;;;;;;7.87;4.70;;;;;;;;;;4983156;28;20221;-86
2021/07/25 16:30:02;;;;;;;7.63;4.70;;;;;;;;;;4982700;28;20523;-86
2021/07/25 16:33:07;;;;;;;8.07;4.30;;;;;;;;;;4983406;28;20183;-86
2021/07/25 16:36:18;;;;;;;7.27;4.30;;;;;;;;;;4984935;28;20235;-87
2021/07/25 16:42:58;;;;;;;8.43;4.80;;;;;;;;;;4982632;28;20539;-87
2021/07/25 16:46:03;;;;;;;9.00;5.30;;;;;;;;;;4945668;28;20224;-86
2021/07/25 16:49:15;;;;;;;5.23;4.57;;;;;;;;;;4963408;28;20208;-87
2021/07/25 16:52:19;;;;;;;7.10;5.37;;;;;;;;;;4962078;28;20196;-87
2021/07/25 16:55:23;;;;;;;7.40;4.40;;;;;;;;;;4986731;28;20226;-87
2021/07/25 16:58:28;;;;;;;5.40;4.43;;;;;;;;;;5003684;28;20193;-86
2021/07/25 17:01:34;;;;;;;10.23;4.67;;;;;;;;;;5005358;28;20181;-86
2021/07/25 17:04:39;;;;;;;11.77;5.10;;;;;;;;;;4994608;28;20624;-86
2021/07/25 17:07:43;;;;;;;6.50;5.10;;;;;;;;;;5010478;28;20645;-86
2021/07/25 17:10:47;;;;;;;6.90;5.10;;;;;;;;;;4959790;28;20664;-86
2021/07/25 17:13:51;;;;;;;5.57;5.00;;;;;;;;;;4986078;28;20194;-85
2021/07/25 17:16:55;;;;;;;7.87;5.53;;;;;;;;;;4974262;28;20222;-86
2021/07/25 17:20:00;;;;;;;5.73;5.10;;;;;;;;;;4960410;28;20531;-86
2021/07/25 17:23:04;;;;;;;6.47;5.30;;;;;;;;;;4955537;28;20186;-85
2021/07/25 17:26:09;;;;;;;8.27;5.17;;;;;;;;;;4974252;28;20215;-86
2021/07/25 17:29:13;;;;;;;5.57;4.97;;;;;;;;;;4955344;28;20191;-85
2021/07/25 17:32:18;;;;;;;5.30;4.80;;;;;;;;;;4963708;28;20535;-85
2021/07/25 17:35:23;;;;;;;7.10;5.40;;;;;;;;;;4975247;28;20222;-86
2021/07/25 17:38:27;;;;;;;6.10;5.50;;;;;;;;;;4952188;28;20634;-86
2021/07/25 17:41:32;;;;;;;8.37;5.73;;;;;;;;;;4969616;28;20537;-85
2021/07/25 17:44:37;;;;;;;6.33;5.03;;;;;;;;;;4985360;28;20206;-85
2021/07/25 17:47:41;;;;;;;7.20;5.13;;;;;;;;;;4997348;28;20202;-86
2021/07/25 17:50:45;;;;;;;6.37;4.30;;;;;;;;;;4982393;28;20198;-86
2021/07/25 17:53:50;;;;;;;9.17;5.37;;;;;;;;;;4982065;28;20183;-85
2021/07/25 17:56:55;;;;;;;5.73;5.03;;;;;;;;;;4959486;28;20238;-87
2021/07/25 18:00:03;;;;;;;7.03;5.00;;;;;;;;;;4956130;28;20195;-86
2021/07/25 18:03:16;;;;;;;6.37;4.67;;;;;;;;;;4980274;28;20198;-85
2021/07/25 18:06:21;;;;;;;5.77;4.80;;;;;;;;;;4957375;28;20657;-86
2021/07/25 18:09:26;;;;;;;8.03;5.40;;;;;;;;;;4976893;28;20202;-86
2021/07/25 18:12:30;;;;;;;5.83;4.93;;;;;;;;;;4967450;28;20534;-86
2021/07/25 18:15:34;;;;;;;8.37;4.67;;;;;;;;;;4982079;28;20233;-87
2021/07/25 18:18:38;;;;;;;6.80;4.20;;;;;;;;;;4965684;28;20688;-85
2021/07/25 18:21:43;;;;;;;6.77;4.90;;;;;;;;;;4970910;28;20194;-86
2021/07/25 18:24:48;;;;;;;6.00;4.93;;;;;;;;;;4994089;28;20542;-86
2021/07/25 18:27:52;;;;;;;7.77;5.13;;;;;;;;;;4972248;28;20183;-85
2021/07/25 18:30:56;;;;;;;5.17;4.47;;;;;;;;;;4968292;28;20198;-86
2021/07/25 18:34:01;;;;;;;6.20;4.77;;;;;;;;;;4975278;28;20194;-86
2021/07/25 18:37:06;;;;;;;4.77;4.30;;;;;;;;;;4974562;28;20320;-86
2021/07/25 18:40:10;;;;;;;5.50;4.80;;;;;;;;;;5001526;28;20181;-86
2021/07/25 18:43:15;;;;;;;7.90;5.30;;;;;;;;;;4973505;28;20186;-86
2021/07/25 18:46:20;;;;;;;8.30;5.03;;;;;;;;;;4982888;28;20550;-86
2021/07/25 18:49:26;;;;;;;6.13;4.80;;;;;;;;;;4982805;28;20206;-86
2021/07/25 18:52:31;;;;;;;6.57;5.10;;;;;;;;;;4971222;28;20206;-86
2021/07/25 18:55:36;;;;;;;6.63;4.93;;;;;;;;;;4982028;28;20601;-87
2021/07/25 18:58:40;;;;;;;5.67;4.80;;;;;;;;;;4968094;28;20205;-87
2021/07/25 19:01:45;;;;;;;6.73;5.27;;;;;;;;;;4980887;28;20661;-86
2021/07/25 19:04:50;;;;;;;9.37;5.37;;;;;;;;;;4970483;28;20186;-87
2021/07/25 19:07:54;;;;;;;6.27;5.00;;;;;;;;;;4992419;28;20562;-87
2021/07/25 19:10:58;;;;;;;9.27;5.07;;;;;;;;;;4970285;28;20202;-87